sensor_id;sensor_type;location;lat;lon;timestamp;temperature;humidity
70928;SHT31;58587;53.034;18.576;2022-07-21T07:36:50;26.92;49.24
70928;SHT31;58587;53.034;18.576;2022-07-21T07:39:15;27.06;49.71
70928;SHT31;58587;53.034;18.576;2022-07-21T07:41:41;27.13;50.18
70928;SHT31;58587;53.034;18.576;2022-07-21T07:44:07;27.29;49.90
70928;SHT31;58587;53.034;18.576;2022-07-21T07:46:33;27.35;48.62
70928;SHT31;58587;53.034;18.576;2022-07-21T07:48:58;27.50;49.08
70928;SHT31;58587;53.034;18.576;2022-07-21T07:51:25;27.59;48.55
70928;SHT31;58587;53.034;18.576;2022-07-21T07:53:50;27.65;47.87
70928;SHT31;58587;53.034;18.576;2022-07-21T07:56:16;27.77;48.61
70928;SHT31;58587;53.034;18.576;2022-07-21T07:58:42;27.88;49.07
70928;SHT31;58587;53.034;18.576;2022-07-21T08:01:07;27.94;47.09
70928;SHT31;58587;53.034;18.576;2022-07-21T08:03:34;28.09;47.76
70928;SHT31;58587;53.034;18.576;2022-07-21T08:06:00;28.09;46.81
70928;SHT31;58587;53.034;18.576;2022-07-21T08:08:28;28.23;48.09
70928;SHT31;58587;53.034;18.576;2022-07-21T08:10:54;28.36;47.04
70928;SHT31;58587;53.034;18.576;2022-07-21T08:13:20;28.46;47.65
70928;SHT31;58587;53.034;18.576;2022-07-21T08:15:46;28.49;45.69
70928;SHT31;58587;53.034;18.576;2022-07-21T08:18:13;28.60;46.71
70928;SHT31;58587;53.034;18.576;2022-07-21T08:20:38;28.71;47.51
70928;SHT31;58587;53.034;18.576;2022-07-21T08:23:05;28.80;46.29
70928;SHT31;58587;53.034;18.576;2022-07-21T08:25:31;28.84;45.56
70928;SHT31;58587;53.034;18.576;2022-07-21T08:27:56;28.90;46.16
70928;SHT31;58587;53.034;18.576;2022-07-21T08:30:22;29.04;46.73
70928;SHT31;58587;53.034;18.576;2022-07-21T08:32:48;29.15;46.18
70928;SHT31;58587;53.034;18.576;2022-07-21T08:35:13;29.20;46.51
70928;SHT31;58587;53.034;18.576;2022-07-21T08:37:39;29.32;46.62
70928;SHT31;58587;53.034;18.576;2022-07-21T08:40:07;29.45;46.15
70928;SHT31;58587;53.034;18.576;2022-07-21T08:42:34;29.58;46.66
70928;SHT31;58587;53.034;18.576;2022-07-21T08:44:59;29.75;45.87
70928;SHT31;58587;53.034;18.576;2022-07-21T08:47:26;29.79;44.09
70928;SHT31;58587;53.034;18.576;2022-07-21T08:49:52;29.83;45.77
70928;SHT31;58587;53.034;18.576;2022-07-21T08:52:18;29.89;43.67
70928;SHT31;58587;53.034;18.576;2022-07-21T08:54:44;29.96;43.97
70928;SHT31;58587;53.034;18.576;2022-07-21T08:57:09;30.06;43.40
70928;SHT31;58587;53.034;18.576;2022-07-21T08:59:35;30.17;43.38
70928;SHT31;58587;53.034;18.576;2022-07-21T09:02:00;30.25;44.83
70928;SHT31;58587;53.034;18.576;2022-07-21T09:04:28;30.39;45.16
70928;SHT31;58587;53.034;18.576;2022-07-21T09:09:25;30.54;43.91
70928;SHT31;58587;53.034;18.576;2022-07-21T09:11:52;30.68;43.42
70928;SHT31;58587;53.034;18.576;2022-07-21T09:14:21;30.74;43.61
70928;SHT31;58587;53.034;18.576;2022-07-21T09:16:53;30.81;44.67
70928;SHT31;58587;53.034;18.576;2022-07-21T09:19:37;30.98;44.37
70928;SHT31;58587;53.034;18.576;2022-07-21T09:22:15;31.10;42.68
70928;SHT31;58587;53.034;18.576;2022-07-21T09:24:51;31.25;44.02
70928;SHT31;58587;53.034;18.576;2022-07-21T09:27:23;31.34;40.68
70928;SHT31;58587;53.034;18.576;2022-07-21T09:32:25;31.42;42.61
70928;SHT31;58587;53.034;18.576;2022-07-21T09:34:53;31.58;43.70
70928;SHT31;58587;53.034;18.576;2022-07-21T09:37:21;31.72;42.60
70928;SHT31;58587;53.034;18.576;2022-07-21T09:39:52;31.73;41.88
70928;SHT31;58587;53.034;18.576;2022-07-21T09:42:24;31.83;43.35
70928;SHT31;58587;53.034;18.576;2022-07-21T09:44:53;32.02;42.79
70928;SHT31;58587;53.034;18.576;2022-07-21T09:47:29;32.10;42.90
70928;SHT31;58587;53.034;18.576;2022-07-21T09:49:56;31.99;41.62
70928;SHT31;58587;53.034;18.576;2022-07-21T09:52:36;32.17;41.69
70928;SHT31;58587;53.034;18.576;2022-07-21T09:55:06;32.20;41.18
70928;SHT31;58587;53.034;18.576;2022-07-21T09:57:33;32.32;41.31
70928;SHT31;58587;53.034;18.576;2022-07-21T09:59:58;32.44;39.58
70928;SHT31;58587;53.034;18.576;2022-07-21T10:02:29;32.59;40.61
70928;SHT31;58587;53.034;18.576;2022-07-21T10:05:07;32.68;41.25
70928;SHT31;58587;53.034;18.576;2022-07-21T10:07:36;32.75;39.62
70928;SHT31;58587;53.034;18.576;2022-07-21T10:10:03;32.85;39.58
70928;SHT31;58587;53.034;18.576;2022-07-21T10:12:29;32.94;40.71
70928;SHT31;58587;53.034;18.576;2022-07-21T10:14:54;33.11;39.91
70928;SHT31;58587;53.034;18.576;2022-07-21T10:17:22;33.15;39.08
70928;SHT31;58587;53.034;18.576;2022-07-21T10:19:54;33.34;39.19
70928;SHT31;58587;53.034;18.576;2022-07-21T10:23:33;33.26;37.46
70928;SHT31;58587;53.034;18.576;2022-07-21T10:25:29;33.04;34.83
70928;SHT31;58587;53.034;18.576;2022-07-21T10:30:44;32.95;36.30
70928;SHT31;58587;53.034;18.576;2022-07-21T10:33:11;32.73;34.96
70928;SHT31;58587;53.034;18.576;2022-07-21T10:35:40;33.01;35.83
70928;SHT31;58587;53.034;18.576;2022-07-21T10:38:25;32.91;34.34
70928;SHT31;58587;53.034;18.576;2022-07-21T10:40:52;32.91;35.08
70928;SHT31;58587;53.034;18.576;2022-07-21T10:45:49;32.98;34.90
70928;SHT31;58587;53.034;18.576;2022-07-21T10:51:03;33.51;34.97
70928;SHT31;58587;53.034;18.576;2022-07-21T10:53:29;33.54;33.51
70928;SHT31;58587;53.034;18.576;2022-07-21T10:55:57;33.73;35.67
70928;SHT31;58587;53.034;18.576;2022-07-21T11:00:59;34.17;34.95
70928;SHT31;58587;53.034;18.576;2022-07-21T11:03:33;34.21;32.97
70928;SHT31;58587;53.034;18.576;2022-07-21T11:06:23;34.21;33.58
70928;SHT31;58587;53.034;18.576;2022-07-21T11:11:23;34.51;33.06
70928;SHT31;58587;53.034;18.576;2022-07-21T11:14:15;34.72;33.20
70928;SHT31;58587;53.034;18.576;2022-07-21T11:19:43;35.02;31.26
70928;SHT31;58587;53.034;18.576;2022-07-21T11:22:18;35.10;31.24
70928;SHT31;58587;53.034;18.576;2022-07-21T11:24:46;35.31;32.48
70928;SHT31;58587;53.034;18.576;2022-07-21T11:27:20;35.43;32.81
70928;SHT31;58587;53.034;18.576;2022-07-21T11:29:48;35.56;30.46
70928;SHT31;58587;53.034;18.576;2022-07-21T11:32:18;35.71;31.09
70928;SHT31;58587;53.034;18.576;2022-07-21T11:34:51;35.72;30.98
70928;SHT31;58587;53.034;18.576;2022-07-21T11:37:26;35.73;30.90
70928;SHT31;58587;53.034;18.576;2022-07-21T11:39:52;35.83;32.15
70928;SHT31;58587;53.034;18.576;2022-07-21T11:42:17;36.09;32.15
70928;SHT31;58587;53.034;18.576;2022-07-21T11:44:43;36.41;31.23
70928;SHT31;58587;53.034;18.576;2022-07-21T11:47:11;36.48;29.29
70928;SHT31;58587;53.034;18.576;2022-07-21T11:49:38;36.67;30.22
70928;SHT31;58587;53.034;18.576;2022-07-21T11:52:28;36.80;30.67
70928;SHT31;58587;53.034;18.576;2022-07-21T11:54:54;36.87;29.93
70928;SHT31;58587;53.034;18.576;2022-07-21T11:57:21;37.08;28.93
70928;SHT31;58587;53.034;18.576;2022-07-21T11:59:48;37.22;29.25
70928;SHT31;58587;53.034;18.576;2022-07-21T12:02:17;37.41;28.27
70928;SHT31;58587;53.034;18.576;2022-07-21T12:04:47;37.49;28.36
70928;SHT31;58587;53.034;18.576;2022-07-21T12:07:26;37.70;29.54
70928;SHT31;58587;53.034;18.576;2022-07-21T12:09:56;37.65;27.62
70928;SHT31;58587;53.034;18.576;2022-07-21T12:12:37;37.78;28.27
70928;SHT31;58587;53.034;18.576;2022-07-21T12:15:25;37.96;28.03
70928;SHT31;58587;53.034;18.576;2022-07-21T12:17:58;37.86;26.36
70928;SHT31;58587;53.034;18.576;2022-07-21T12:20:31;37.99;26.77
70928;SHT31;58587;53.034;18.576;2022-07-21T12:22:59;38.24;27.62
70928;SHT31;58587;53.034;18.576;2022-07-21T12:25:37;38.27;26.19
70928;SHT31;58587;53.034;18.576;2022-07-21T12:28:04;38.68;27.58
70928;SHT31;58587;53.034;18.576;2022-07-21T12:30:38;38.82;26.46
70928;SHT31;58587;53.034;18.576;2022-07-21T12:33:07;39.04;25.79
70928;SHT31;58587;53.034;18.576;2022-07-21T12:35:35;38.84;25.28
70928;SHT31;58587;53.034;18.576;2022-07-21T12:38:05;39.02;24.55
70928;SHT31;58587;53.034;18.576;2022-07-21T12:40:35;39.45;26.16
70928;SHT31;58587;53.034;18.576;2022-07-21T12:45:57;39.48;25.11
70928;SHT31;58587;53.034;18.576;2022-07-21T12:48:32;39.68;24.47
70928;SHT31;58587;53.034;18.576;2022-07-21T12:53:42;40.00;24.67
70928;SHT31;58587;53.034;18.576;2022-07-21T12:56:08;40.27;24.13
70928;SHT31;58587;53.034;18.576;2022-07-21T12:58:35;40.51;24.14
70928;SHT31;58587;53.034;18.576;2022-07-21T13:01:01;40.36;23.96
70928;SHT31;58587;53.034;18.576;2022-07-21T13:03:28;40.68;24.23
70928;SHT31;58587;53.034;18.576;2022-07-21T13:05:54;41.01;23.42
70928;SHT31;58587;53.034;18.576;2022-07-21T13:08:21;41.22;23.39
70928;SHT31;58587;53.034;18.576;2022-07-21T13:10:46;41.17;22.08
70928;SHT31;58587;53.034;18.576;2022-07-21T13:13:12;41.05;21.93
70928;SHT31;58587;53.034;18.576;2022-07-21T13:15:38;40.80;22.42
70928;SHT31;58587;53.034;18.576;2022-07-21T13:18:04;40.64;22.08
70928;SHT31;58587;53.034;18.576;2022-07-21T13:20:30;40.78;22.12
70928;SHT31;58587;53.034;18.576;2022-07-21T13:22:55;41.45;23.08
70928;SHT31;58587;53.034;18.576;2022-07-21T13:25:21;41.39;23.04
70928;SHT31;58587;53.034;18.576;2022-07-21T13:27:46;41.65;22.61
70928;SHT31;58587;53.034;18.576;2022-07-21T13:30:12;41.93;22.02
70928;SHT31;58587;53.034;18.576;2022-07-21T13:32:38;42.40;22.48
70928;SHT31;58587;53.034;18.576;2022-07-21T13:35:05;42.76;22.20
70928;SHT31;58587;53.034;18.576;2022-07-21T13:37:33;43.08;21.60
70928;SHT31;58587;53.034;18.576;2022-07-21T13:39:58;43.36;22.14
70928;SHT31;58587;53.034;18.576;2022-07-21T13:42:24;43.28;19.95
70928;SHT31;58587;53.034;18.576;2022-07-21T13:44:50;43.93;19.85
70928;SHT31;58587;53.034;18.576;2022-07-21T13:47:16;44.04;20.74
70928;SHT31;58587;53.034;18.576;2022-07-21T13:49:41;44.37;20.51
70928;SHT31;58587;53.034;18.576;2022-07-21T13:52:07;44.24;20.04
70928;SHT31;58587;53.034;18.576;2022-07-21T13:54:34;44.68;19.94
70928;SHT31;58587;53.034;18.576;2022-07-21T13:56:59;45.11;20.18
70928;SHT31;58587;53.034;18.576;2022-07-21T13:59:25;45.18;20.05
70928;SHT31;58587;53.034;18.576;2022-07-21T14:01:51;45.18;19.12
70928;SHT31;58587;53.034;18.576;2022-07-21T14:04:17;44.63;19.66
70928;SHT31;58587;53.034;18.576;2022-07-21T14:06:43;45.48;19.82
70928;SHT31;58587;53.034;18.576;2022-07-21T14:09:14;45.56;19.05
70928;SHT31;58587;53.034;18.576;2022-07-21T14:11:40;44.95;18.23
70928;SHT31;58587;53.034;18.576;2022-07-21T14:14:05;45.34;18.80
70928;SHT31;58587;53.034;18.576;2022-07-21T14:16:33;45.23;18.69
70928;SHT31;58587;53.034;18.576;2022-07-21T14:18:58;45.15;20.43
70928;SHT31;58587;53.034;18.576;2022-07-21T14:21:25;45.75;19.00
70928;SHT31;58587;53.034;18.576;2022-07-21T14:23:53;45.38;18.82
70928;SHT31;58587;53.034;18.576;2022-07-21T14:26:41;45.08;19.50
70928;SHT31;58587;53.034;18.576;2022-07-21T14:29:07;45.66;18.81
70928;SHT31;58587;53.034;18.576;2022-07-21T14:31:34;46.23;18.42
70928;SHT31;58587;53.034;18.576;2022-07-21T14:33:59;45.52;18.46
70928;SHT31;58587;53.034;18.576;2022-07-21T14:36:25;45.29;18.80
70928;SHT31;58587;53.034;18.576;2022-07-21T14:38:51;46.22;19.04
70928;SHT31;58587;53.034;18.576;2022-07-21T14:41:17;46.00;19.85
70928;SHT31;58587;53.034;18.576;2022-07-21T14:43:48;46.08;18.80
70928;SHT31;58587;53.034;18.576;2022-07-21T14:46:16;45.62;18.85
70928;SHT31;58587;53.034;18.576;2022-07-21T14:48:41;44.98;18.33
70928;SHT31;58587;53.034;18.576;2022-07-21T14:51:07;44.50;18.36
70928;SHT31;58587;53.034;18.576;2022-07-21T14:53:33;44.90;18.53
70928;SHT31;58587;53.034;18.576;2022-07-21T14:55:58;44.37;19.00
70928;SHT31;58587;53.034;18.576;2022-07-21T14:58:24;44.54;19.39
70928;SHT31;58587;53.034;18.576;2022-07-21T15:00:49;45.29;18.82
70928;SHT31;58587;53.034;18.576;2022-07-21T15:03:15;45.34;18.66
70928;SHT31;58587;53.034;18.576;2022-07-21T15:05:41;45.08;19.18
70928;SHT31;58587;53.034;18.576;2022-07-21T15:08:07;45.18;18.90
70928;SHT31;58587;53.034;18.576;2022-07-21T15:10:33;44.37;18.52
70928;SHT31;58587;53.034;18.576;2022-07-21T15:12:58;44.24;19.11
70928;SHT31;58587;53.034;18.576;2022-07-21T15:15:24;44.23;19.26
70928;SHT31;58587;53.034;18.576;2022-07-21T15:17:50;43.45;19.94
70928;SHT31;58587;53.034;18.576;2022-07-21T15:20:15;43.67;19.87
70928;SHT31;58587;53.034;18.576;2022-07-21T15:22:42;43.41;20.74
70928;SHT31;58587;53.034;18.576;2022-07-21T15:25:08;43.57;19.92
70928;SHT31;58587;53.034;18.576;2022-07-21T15:27:39;43.86;19.97
70928;SHT31;58587;53.034;18.576;2022-07-21T15:30:09;44.12;19.86
70928;SHT31;58587;53.034;18.576;2022-07-21T15:32:35;42.85;19.80
70928;SHT31;58587;53.034;18.576;2022-07-21T15:35:01;42.13;20.04
70928;SHT31;58587;53.034;18.576;2022-07-21T15:37:27;42.41;19.96
70928;SHT31;58587;53.034;18.576;2022-07-21T15:39:52;41.89;20.51
70928;SHT31;58587;53.034;18.576;2022-07-21T15:42:18;41.78;20.95
70928;SHT31;58587;53.034;18.576;2022-07-21T15:44:44;41.89;21.58
70928;SHT31;58587;53.034;18.576;2022-07-21T15:47:12;41.79;21.42
70928;SHT31;58587;53.034;18.576;2022-07-21T15:49:38;41.89;21.36
70928;SHT31;58587;53.034;18.576;2022-07-21T15:52:04;42.07;21.26
70928;SHT31;58587;53.034;18.576;2022-07-21T15:54:30;41.65;21.61
70928;SHT31;58587;53.034;18.576;2022-07-21T15:56:56;41.42;21.81
70928;SHT31;58587;53.034;18.576;2022-07-21T15:59:22;41.01;22.06
70928;SHT31;58587;53.034;18.576;2022-07-21T16:02:01;40.77;23.03
70928;SHT31;58587;53.034;18.576;2022-07-21T16:04:27;40.41;22.75
70928;SHT31;58587;53.034;18.576;2022-07-21T16:06:53;40.20;23.22
70928;SHT31;58587;53.034;18.576;2022-07-21T16:09:19;39.93;23.74
70928;SHT31;58587;53.034;18.576;2022-07-21T16:11:44;39.44;24.18
70928;SHT31;58587;53.034;18.576;2022-07-21T16:14:10;38.59;24.27
70928;SHT31;58587;53.034;18.576;2022-07-21T16:16:36;38.51;25.00
70928;SHT31;58587;53.034;18.576;2022-07-21T16:19:02;38.16;24.70
70928;SHT31;58587;53.034;18.576;2022-07-21T16:21:28;37.96;25.31
70928;SHT31;58587;53.034;18.576;2022-07-21T16:23:54;37.96;25.63
70928;SHT31;58587;53.034;18.576;2022-07-21T16:26:20;37.82;26.12
70928;SHT31;58587;53.034;18.576;2022-07-21T16:28:46;37.42;25.91
70928;SHT31;58587;53.034;18.576;2022-07-21T16:31:11;37.13;26.61
70928;SHT31;58587;53.034;18.576;2022-07-21T16:33:37;36.90;27.27
70928;SHT31;58587;53.034;18.576;2022-07-21T16:36:04;36.50;27.49
70928;SHT31;58587;53.034;18.576;2022-07-21T16:38:29;36.29;27.57
70928;SHT31;58587;53.034;18.576;2022-07-21T16:40:55;36.03;27.74
70928;SHT31;58587;53.034;18.576;2022-07-21T16:43:20;35.83;28.34
70928;SHT31;58587;53.034;18.576;2022-07-21T16:45:46;35.75;28.77
70928;SHT31;58587;53.034;18.576;2022-07-21T16:48:12;35.52;29.75
70928;SHT31;58587;53.034;18.576;2022-07-21T16:50:38;35.25;29.30
70928;SHT31;58587;53.034;18.576;2022-07-21T16:53:04;35.14;29.89
70928;SHT31;58587;53.034;18.576;2022-07-21T16:55:29;34.97;29.82
70928;SHT31;58587;53.034;18.576;2022-07-21T16:57:55;34.70;29.65
70928;SHT31;58587;53.034;18.576;2022-07-21T17:00:21;34.64;30.28
70928;SHT31;58587;53.034;18.576;2022-07-21T17:02:46;34.56;29.96
70928;SHT31;58587;53.034;18.576;2022-07-21T17:05:12;34.30;30.21
70928;SHT31;58587;53.034;18.576;2022-07-21T17:07:38;34.24;30.90
70928;SHT31;58587;53.034;18.576;2022-07-21T17:10:05;34.07;30.85
70928;SHT31;58587;53.034;18.576;2022-07-21T17:12:31;33.95;31.11
70928;SHT31;58587;53.034;18.576;2022-07-21T17:14:56;33.77;31.39
70928;SHT31;58587;53.034;18.576;2022-07-21T17:17:22;33.80;31.22
70928;SHT31;58587;53.034;18.576;2022-07-21T17:19:48;33.65;31.31
70928;SHT31;58587;53.034;18.576;2022-07-21T17:22:14;33.62;31.81
70928;SHT31;58587;53.034;18.576;2022-07-21T17:24:39;33.52;32.29
70928;SHT31;58587;53.034;18.576;2022-07-21T17:27:05;33.42;32.77
70928;SHT31;58587;53.034;18.576;2022-07-21T17:29:31;33.36;33.00
70928;SHT31;58587;53.034;18.576;2022-07-21T17:31:57;33.21;33.43
70928;SHT31;58587;53.034;18.576;2022-07-21T17:34:22;33.12;33.39
70928;SHT31;58587;53.034;18.576;2022-07-21T17:36:48;32.98;33.46
70928;SHT31;58587;53.034;18.576;2022-07-21T17:39:17;32.91;33.42
70928;SHT31;58587;53.034;18.576;2022-07-21T17:41:43;32.83;33.23
70928;SHT31;58587;53.034;18.576;2022-07-21T17:44:08;32.71;33.62
70928;SHT31;58587;53.034;18.576;2022-07-21T17:46:34;32.67;33.96
70928;SHT31;58587;53.034;18.576;2022-07-21T17:49:00;32.61;34.49
70928;SHT31;58587;53.034;18.576;2022-07-21T17:51:25;32.45;34.65
70928;SHT31;58587;53.034;18.576;2022-07-21T17:53:53;32.32;35.00
70928;SHT31;58587;53.034;18.576;2022-07-21T17:56:19;32.22;34.80
70928;SHT31;58587;53.034;18.576;2022-07-21T17:58:45;32.08;35.30
70928;SHT31;58587;53.034;18.576;2022-07-21T18:01:16;32.10;35.37
70928;SHT31;58587;53.034;18.576;2022-07-21T18:03:54;31.99;35.94
70928;SHT31;58587;53.034;18.576;2022-07-21T18:06:21;31.88;35.94
70928;SHT31;58587;53.034;18.576;2022-07-21T18:08:50;31.82;36.18
70928;SHT31;58587;53.034;18.576;2022-07-21T18:11:16;31.69;36.26
70928;SHT31;58587;53.034;18.576;2022-07-21T18:13:42;31.63;36.04
70928;SHT31;58587;53.034;18.576;2022-07-21T18:16:08;31.49;36.38
70928;SHT31;58587;53.034;18.576;2022-07-21T18:18:35;31.43;36.80
70928;SHT31;58587;53.034;18.576;2022-07-21T18:21:02;31.35;37.07
70928;SHT31;58587;53.034;18.576;2022-07-21T18:23:27;31.28;37.33
70928;SHT31;58587;53.034;18.576;2022-07-21T18:25:53;31.14;37.47
70928;SHT31;58587;53.034;18.576;2022-07-21T18:28:19;31.08;37.46
70928;SHT31;58587;53.034;18.576;2022-07-21T18:30:46;30.95;37.63
70928;SHT31;58587;53.034;18.576;2022-07-21T18:33:13;30.87;37.78
70928;SHT31;58587;53.034;18.576;2022-07-21T18:35:39;30.80;38.16
70928;SHT31;58587;53.034;18.576;2022-07-21T18:38:06;30.74;38.20
70928;SHT31;58587;53.034;18.576;2022-07-21T18:40:33;30.64;38.40
70928;SHT31;58587;53.034;18.576;2022-07-21T18:43:00;30.56;38.70
70928;SHT31;58587;53.034;18.576;2022-07-21T18:45:31;30.43;38.96
70928;SHT31;58587;53.034;18.576;2022-07-21T18:48:00;30.36;39.00
70928;SHT31;58587;53.034;18.576;2022-07-21T18:50:26;30.29;39.55
70928;SHT31;58587;53.034;18.576;2022-07-21T18:52:53;30.19;39.84
70928;SHT31;58587;53.034;18.576;2022-07-21T18:55:19;30.06;39.90
70928;SHT31;58587;53.034;18.576;2022-07-21T18:57:45;30.02;40.22
70928;SHT31;58587;53.034;18.576;2022-07-21T19:00:13;29.88;40.35
70928;SHT31;58587;53.034;18.576;2022-07-21T19:02:40;29.79;40.66
70928;SHT31;58587;53.034;18.576;2022-07-21T19:05:06;29.71;40.68
70928;SHT31;58587;53.034;18.576;2022-07-21T19:07:37;29.54;41.02
70928;SHT31;58587;53.034;18.576;2022-07-21T19:10:03;29.52;41.16
70928;SHT31;58587;53.034;18.576;2022-07-21T19:12:34;29.42;41.93
70928;SHT31;58587;53.034;18.576;2022-07-21T19:15:01;29.32;42.17
70928;SHT31;58587;53.034;18.576;2022-07-21T19:17:27;29.18;42.20
70928;SHT31;58587;53.034;18.576;2022-07-21T19:19:53;29.14;42.22
70928;SHT31;58587;53.034;18.576;2022-07-21T19:22:21;29.06;43.11
70928;SHT31;58587;53.034;18.576;2022-07-21T19:24:47;28.96;42.71
70928;SHT31;58587;53.034;18.576;2022-07-21T19:27:13;28.86;43.11
70928;SHT31;58587;53.034;18.576;2022-07-21T19:29:40;28.76;43.51
70928;SHT31;58587;53.034;18.576;2022-07-21T19:32:07;28.63;43.74
70928;SHT31;58587;53.034;18.576;2022-07-21T19:34:33;28.57;45.28
70928;SHT31;58587;53.034;18.576;2022-07-21T19:36:59;28.50;45.30
70928;SHT31;58587;53.034;18.576;2022-07-21T19:39:25;28.49;44.56
70928;SHT31;58587;53.034;18.576;2022-07-21T19:41:54;28.43;44.38
70928;SHT31;58587;53.034;18.576;2022-07-21T19:44:21;28.35;44.56
70928;SHT31;58587;53.034;18.576;2022-07-21T19:46:47;28.22;45.98
70928;SHT31;58587;53.034;18.576;2022-07-21T19:49:14;28.16;45.82
70928;SHT31;58587;53.034;18.576;2022-07-21T19:51:40;28.06;45.71
70928;SHT31;58587;53.034;18.576;2022-07-21T19:54:06;28.05;44.83
70928;SHT31;58587;53.034;18.576;2022-07-21T19:56:34;27.95;45.42
70928;SHT31;58587;53.034;18.576;2022-07-21T19:59:03;27.89;45.30
70928;SHT31;58587;53.034;18.576;2022-07-21T20:01:29;27.85;45.11
70928;SHT31;58587;53.034;18.576;2022-07-21T20:03:57;27.78;45.54
70928;SHT31;58587;53.034;18.576;2022-07-21T20:06:23;27.75;45.16
70928;SHT31;58587;53.034;18.576;2022-07-21T20:08:50;27.72;45.22
70928;SHT31;58587;53.034;18.576;2022-07-21T20:11:16;27.65;45.28
70928;SHT31;58587;53.034;18.576;2022-07-21T20:13:42;27.62;45.87
70928;SHT31;58587;53.034;18.576;2022-07-21T20:16:09;27.50;46.06
70928;SHT31;58587;53.034;18.576;2022-07-21T20:18:36;27.45;46.04
70928;SHT31;58587;53.034;18.576;2022-07-21T20:21:03;27.40;45.74
70928;SHT31;58587;53.034;18.576;2022-07-21T20:23:33;27.34;45.74
70928;SHT31;58587;53.034;18.576;2022-07-21T20:26:00;27.31;45.75
70928;SHT31;58587;53.034;18.576;2022-07-21T20:28:26;27.27;46.13
70928;SHT31;58587;53.034;18.576;2022-07-21T20:30:52;27.20;46.19
70928;SHT31;58587;53.034;18.576;2022-07-21T20:33:18;27.14;46.48
70928;SHT31;58587;53.034;18.576;2022-07-21T20:35:49;27.07;46.34
70928;SHT31;58587;53.034;18.576;2022-07-21T20:38:17;27.06;46.75
70928;SHT31;58587;53.034;18.576;2022-07-21T20:40:43;27.00;46.38
70928;SHT31;58587;53.034;18.576;2022-07-21T20:43:10;26.93;46.83
70928;SHT31;58587;53.034;18.576;2022-07-21T20:45:39;26.89;46.43
70928;SHT31;58587;53.034;18.576;2022-07-21T20:48:05;26.83;47.35
70928;SHT31;58587;53.034;18.576;2022-07-21T20:50:32;26.79;47.10
70928;SHT31;58587;53.034;18.576;2022-07-21T20:52:58;26.73;47.39
70928;SHT31;58587;53.034;18.576;2022-07-21T20:55:25;26.69;47.18
70928;SHT31;58587;53.034;18.576;2022-07-21T20:57:52;26.62;47.33
70928;SHT31;58587;53.034;18.576;2022-07-21T21:00:21;26.62;47.37
70928;SHT31;58587;53.034;18.576;2022-07-21T21:02:49;26.59;47.34
70928;SHT31;58587;53.034;18.576;2022-07-21T21:05:17;26.53;47.51
70928;SHT31;58587;53.034;18.576;2022-07-21T21:07:43;26.50;47.52
70928;SHT31;58587;53.034;18.576;2022-07-21T21:10:10;26.46;47.56
70928;SHT31;58587;53.034;18.576;2022-07-21T21:12:36;26.45;47.13
70928;SHT31;58587;53.034;18.576;2022-07-21T21:15:04;26.45;47.31
70928;SHT31;58587;53.034;18.576;2022-07-21T21:17:32;26.39;47.50
70928;SHT31;58587;53.034;18.576;2022-07-21T21:19:59;26.35;47.56
70928;SHT31;58587;53.034;18.576;2022-07-21T21:22:27;26.32;48.01
70928;SHT31;58587;53.034;18.576;2022-07-21T21:24:53;26.25;47.90
70928;SHT31;58587;53.034;18.576;2022-07-21T21:27:19;26.26;47.79
70928;SHT31;58587;53.034;18.576;2022-07-21T21:29:45;26.22;47.71
70928;SHT31;58587;53.034;18.576;2022-07-21T21:32:13;26.19;47.62
70928;SHT31;58587;53.034;18.576;2022-07-21T21:34:39;26.17;48.35
70928;SHT31;58587;53.034;18.576;2022-07-21T21:37:05;26.15;47.61
70928;SHT31;58587;53.034;18.576;2022-07-21T21:39:32;26.17;47.64
70928;SHT31;58587;53.034;18.576;2022-07-21T21:42:04;26.11;47.85
70928;SHT31;58587;53.034;18.576;2022-07-21T21:44:31;26.12;47.82
70928;SHT31;58587;53.034;18.576;2022-07-21T21:46:59;26.08;48.04
70928;SHT31;58587;53.034;18.576;2022-07-21T21:49:25;26.01;48.14
70928;SHT31;58587;53.034;18.576;2022-07-21T21:51:54;25.98;48.20
70928;SHT31;58587;53.034;18.576;2022-07-21T21:54:20;25.91;48.26
70928;SHT31;58587;53.034;18.576;2022-07-21T21:56:47;25.87;48.52
70928;SHT31;58587;53.034;18.576;2022-07-21T21:59:14;25.78;49.36
70928;SHT31;58587;53.034;18.576;2022-07-21T22:01:42;25.77;50.38
70928;SHT31;58587;53.034;18.576;2022-07-21T22:04:08;25.67;50.91
70928;SHT31;58587;53.034;18.576;2022-07-21T22:06:33;25.56;51.75
70928;SHT31;58587;53.034;18.576;2022-07-21T22:08:59;25.50;52.11
70928;SHT31;58587;53.034;18.576;2022-07-21T22:11:25;25.50;52.27
70928;SHT31;58587;53.034;18.576;2022-07-21T22:13:51;25.37;53.01
70928;SHT31;58587;53.034;18.576;2022-07-21T22:16:17;25.34;52.77
70928;SHT31;58587;53.034;18.576;2022-07-21T22:18:42;25.30;51.89
70928;SHT31;58587;53.034;18.576;2022-07-21T22:21:08;25.31;51.91
70928;SHT31;58587;53.034;18.576;2022-07-21T22:23:35;25.22;52.98
70928;SHT31;58587;53.034;18.576;2022-07-21T22:26:00;25.14;53.50
70928;SHT31;58587;53.034;18.576;2022-07-21T22:28:26;25.10;53.50
70928;SHT31;58587;53.034;18.576;2022-07-21T22:30:52;24.96;54.15
70928;SHT31;58587;53.034;18.576;2022-07-21T22:33:18;24.95;54.06
